createdAt,value
2018-12-25T00:00:56.846Z,95020.20
2018-12-25T00:03:27.270Z,95010.51
2018-12-25T00:05:56.805Z,95011.03
2018-12-25T00:08:26.339Z,95037.85
2018-12-25T00:10:55.783Z,95027.62
2018-12-25T00:13:25.244Z,95041.08
2018-12-25T00:15:54.751Z,95045.34
2018-12-25T00:18:24.286Z,95047.22
2018-12-25T00:20:53.755Z,95053.55
2018-12-25T00:23:23.266Z,95065.30
2018-12-25T00:25:52.755Z,95057.17
2018-12-25T00:28:22.284Z,95063.66
2018-12-25T00:30:51.875Z,95051.86
2018-12-25T00:33:21.371Z,95067.41
2018-12-25T00:35:50.873Z,95078.39
2018-12-25T00:38:20.370Z,95084.86
2018-12-25T00:40:49.968Z,95080.44
2018-12-25T00:43:19.454Z,95081.00
2018-12-25T00:45:48.902Z,95078.17
2018-12-25T00:48:18.401Z,95065.17
2018-12-25T00:50:47.886Z,95064.28
2018-12-25T00:53:17.400Z,95073.36
2018-12-25T00:55:46.919Z,95074.99
2018-12-25T00:58:16.421Z,95073.63
2018-12-25T01:00:45.953Z,95078.47
2018-12-25T01:03:15.514Z,95079.15
2018-12-25T01:05:45.075Z,95088.41
2018-12-25T01:08:14.610Z,95085.74
2018-12-25T01:10:44.105Z,95090.19
2018-12-25T01:13:13.615Z,95095.97
2018-12-25T01:15:43.069Z,95092.05
2018-12-25T01:18:12.660Z,95110.13
2018-12-25T01:20:42.121Z,95100.36
2018-12-25T01:23:11.637Z,95090.70
2018-12-25T01:25:41.143Z,95104.43
2018-12-25T01:28:12.514Z,95117.13
2018-12-25T01:30:42.016Z,95116.92
2018-12-25T01:33:11.520Z,95113.83
2018-12-25T01:35:41.010Z,95122.96
2018-12-25T01:38:10.894Z,95121.16
2018-12-25T01:40:40.411Z,95126.20
2018-12-25T01:43:09.965Z,95127.23
2018-12-25T01:45:39.410Z,95129.98
2018-12-25T01:48:08.864Z,95124.27
2018-12-25T01:50:38.647Z,95124.50
2018-12-25T01:53:08.146Z,95122.47
2018-12-25T01:55:37.670Z,95117.39
2018-12-25T01:58:07.186Z,95110.45
2018-12-25T02:00:36.682Z,95116.50
2018-12-25T02:03:06.227Z,95133.89
2018-12-25T02:05:35.730Z,95117.17
2018-12-25T02:08:05.177Z,95133.28
2018-12-25T02:10:34.687Z,95121.88
2018-12-25T02:13:04.167Z,95116.13
2018-12-25T02:15:33.619Z,95119.28
2018-12-25T02:18:03.148Z,95095.40
2018-12-25T02:20:32.639Z,95118.16
2018-12-25T02:23:02.136Z,95121.27
2018-12-25T02:25:31.665Z,95128.08
2018-12-25T02:28:01.208Z,95133.69
2018-12-25T02:30:30.750Z,95130.33
2018-12-25T02:33:00.309Z,95137.95
2018-12-25T02:35:29.860Z,95131.58
2018-12-25T02:37:59.327Z,95150.62
2018-12-25T02:40:28.819Z,95136.33
2018-12-25T02:42:58.319Z,95130.69
2018-12-25T02:45:27.797Z,95149.25
2018-12-25T02:47:57.239Z,95132.46
2018-12-25T02:50:26.689Z,95146.37
2018-12-25T02:52:56.155Z,95150.03
2018-12-25T02:55:25.660Z,95145.73
2018-12-25T02:57:55.143Z,95140.30
2018-12-25T03:00:24.670Z,95151.20
2018-12-25T03:02:54.159Z,95148.66
2018-12-25T03:05:23.693Z,95153.57
2018-12-25T03:07:53.230Z,95125.16
2018-12-25T03:10:22.681Z,95137.86
2018-12-25T03:12:52.187Z,95151.07
2018-12-25T03:15:21.663Z,95142.50
2018-12-25T03:17:51.160Z,95152.28
2018-12-25T03:20:20.610Z,95144.74
2018-12-25T03:22:50.067Z,95149.91
2018-12-25T03:25:19.537Z,95142.69
2018-12-25T03:27:49.073Z,95154.30
2018-12-25T03:30:18.640Z,95147.80
2018-12-25T03:32:48.193Z,95147.78
2018-12-25T03:35:17.731Z,95172.69
2018-12-25T03:37:47.237Z,95183.36
2018-12-25T03:40:16.659Z,95180.50
2018-12-25T03:42:46.133Z,95172.16
2018-12-25T03:45:15.656Z,95183.91
2018-12-25T03:47:45.121Z,95175.47
2018-12-25T03:50:14.683Z,95175.34
2018-12-25T03:52:44.167Z,95179.28
2018-12-25T03:55:13.634Z,95197.20
2018-12-25T03:57:43.122Z,95178.09
2018-12-25T04:00:12.598Z,95188.00
2018-12-25T04:02:42.115Z,95204.53
2018-12-25T04:05:11.548Z,95200.66
2018-12-25T04:07:41.032Z,95202.30
2018-12-25T04:10:10.497Z,95204.53
2018-12-25T04:12:39.976Z,95207.70
2018-12-25T04:15:09.446Z,95213.78
2018-12-25T04:17:38.921Z,95213.31
2018-12-25T04:20:08.966Z,95216.02
2018-12-25T04:22:38.444Z,95226.21
2018-12-25T04:25:07.932Z,95238.27
2018-12-25T04:27:37.432Z,95239.56
2018-12-25T04:30:07.315Z,95242.84
2018-12-25T04:32:36.772Z,95249.60
2018-12-25T04:35:06.273Z,95256.05
2018-12-25T04:37:35.757Z,95256.56
2018-12-25T04:40:05.459Z,95259.14
2018-12-25T04:42:35.818Z,95259.27
2018-12-25T04:45:05.541Z,95248.72
2018-12-25T04:47:35.127Z,95269.23
2018-12-25T04:50:04.970Z,95266.19
2018-12-25T04:52:34.509Z,95272.29
2018-12-25T04:55:04.035Z,95273.65
2018-12-25T04:57:33.541Z,95282.72
2018-12-25T05:00:06.475Z,95281.27
2018-12-25T05:02:36.033Z,95296.56
2018-12-25T05:05:05.609Z,95283.09
2018-12-25T05:07:35.049Z,95289.54
2018-12-25T05:10:04.535Z,95286.27
2018-12-25T05:12:34.125Z,95285.03
2018-12-25T05:15:03.542Z,95290.53
2018-12-25T05:17:32.996Z,95292.42
2018-12-25T05:20:02.446Z,95295.72
2018-12-25T05:22:32.019Z,95310.36
2018-12-25T05:25:01.484Z,95293.14
2018-12-25T05:27:31.036Z,95303.56
2018-12-25T05:30:00.507Z,95318.10
2018-12-25T05:32:30.064Z,95321.33
2018-12-25T05:34:59.533Z,95310.88
2018-12-25T05:37:29.029Z,95288.89
2018-12-25T05:39:58.561Z,95313.02
2018-12-25T05:42:28.150Z,95318.39
2018-12-25T05:44:57.723Z,95318.17
2018-12-25T05:47:27.270Z,95316.53
2018-12-25T05:49:56.771Z,95325.16
2018-12-25T05:52:26.301Z,95334.70
2018-12-25T05:54:55.790Z,95351.78
2018-12-25T05:57:25.296Z,95350.38
2018-12-25T05:59:54.839Z,95355.99
2018-12-25T06:02:24.386Z,95351.30
2018-12-25T06:04:53.838Z,95341.94
2018-12-25T06:07:23.318Z,95341.33
2018-12-25T06:09:52.835Z,95345.60
2018-12-25T06:12:22.407Z,95353.89
2018-12-25T06:14:51.937Z,95358.63
2018-12-25T06:17:21.369Z,95352.65
2018-12-25T06:19:50.877Z,95359.92
2018-12-25T06:22:20.335Z,95364.95
2018-12-25T06:24:49.905Z,95367.48
2018-12-25T06:27:19.428Z,95367.84
2018-12-25T06:29:55.936Z,95378.05
2018-12-25T06:32:25.459Z,95377.80
2018-12-25T06:34:54.988Z,95376.71
2018-12-25T06:37:24.465Z,95386.48
2018-12-25T06:39:53.944Z,95383.44
2018-12-25T06:42:23.446Z,95384.91
2018-12-25T06:44:52.913Z,95384.86
2018-12-25T06:47:22.454Z,95384.52
2018-12-25T06:49:51.931Z,95378.05
2018-12-25T06:52:21.410Z,95390.97
2018-12-25T06:54:50.993Z,95382.16
2018-12-25T06:57:20.651Z,95378.19
2018-12-25T06:59:50.143Z,95390.78
2018-12-25T07:02:19.612Z,95401.34
2018-12-25T07:04:49.204Z,95395.01
2018-12-25T07:07:18.734Z,95387.02
2018-12-25T07:09:48.198Z,95377.12
2018-12-25T07:12:17.688Z,95372.83
2018-12-25T07:14:47.221Z,95385.62
2018-12-25T07:17:16.767Z,95379.09
2018-12-25T07:19:46.284Z,95387.79
2018-12-25T07:22:15.815Z,95379.69
2018-12-25T07:24:45.303Z,95388.09
2018-12-25T07:27:15.172Z,95386.91
2018-12-25T07:29:44.657Z,95397.64
2018-12-25T07:32:14.105Z,95390.25
2018-12-25T07:34:43.637Z,95401.39
2018-12-25T07:37:13.263Z,95401.27
2018-12-25T07:39:42.735Z,95394.28
2018-12-25T07:42:12.282Z,95404.61
2018-12-25T07:44:41.823Z,95412.70
2018-12-25T07:47:11.389Z,95415.98
2018-12-25T07:49:40.873Z,95415.47
2018-12-25T07:52:10.348Z,95407.79
2018-12-25T07:54:40.009Z,95404.28
2018-12-25T07:57:10.632Z,95401.09
2018-12-25T07:59:40.144Z,95414.47
2018-12-25T08:02:09.656Z,95420.51
2018-12-25T08:04:39.143Z,95402.84
2018-12-25T08:07:08.619Z,95403.93
2018-12-25T08:09:38.189Z,95412.66
2018-12-25T08:12:07.746Z,95402.22
2018-12-25T08:14:37.263Z,95415.81
2018-12-25T08:17:06.757Z,95414.02
2018-12-25T08:19:36.704Z,95414.59
2018-12-25T08:22:06.291Z,95418.13
2018-12-25T08:24:35.822Z,95418.13
2018-12-25T08:27:05.336Z,95415.70
2018-12-25T08:29:34.838Z,95423.82
2018-12-25T08:32:04.364Z,95419.02
2018-12-25T08:34:33.900Z,95431.33
2018-12-25T08:37:03.354Z,95446.98
2018-12-25T08:39:32.896Z,95430.71
2018-12-25T08:42:02.376Z,95437.35
2018-12-25T08:44:31.874Z,95432.43
2018-12-25T08:47:02.557Z,95421.53
2018-12-25T08:49:32.451Z,95424.50
2018-12-25T08:52:02.080Z,95434.70
2018-12-25T08:54:31.579Z,95417.58
2018-12-25T08:57:01.108Z,95424.26
2018-12-25T08:59:30.924Z,95414.13
2018-12-25T09:02:00.508Z,95420.23
2018-12-25T09:04:30.077Z,95431.03
2018-12-25T09:06:59.641Z,95424.81
2018-12-25T09:09:29.164Z,95423.36
2018-12-25T09:11:58.748Z,95407.09
2018-12-25T09:14:28.275Z,95407.02
2018-12-25T09:16:57.789Z,95407.80
2018-12-25T09:19:27.252Z,95418.13
2018-12-25T09:21:56.750Z,95413.60
2018-12-25T09:24:26.236Z,95405.45
2018-12-25T09:26:55.774Z,95401.86
2018-12-25T09:29:25.294Z,95406.08
2018-12-25T09:31:54.840Z,95395.96
2018-12-25T09:34:24.453Z,95400.40
2018-12-25T09:36:53.943Z,95404.02
2018-12-25T09:39:23.410Z,95412.23
2018-12-25T09:41:52.983Z,95411.06
2018-12-25T09:44:22.488Z,95410.42
2018-12-25T09:46:52.032Z,95413.59
2018-12-25T09:49:21.535Z,95417.72
2018-12-25T09:51:54.627Z,95414.08
2018-12-25T09:54:22.187Z,95405.91
2018-12-25T09:56:51.649Z,95420.03
2018-12-25T09:59:21.182Z,95401.33
2018-12-25T10:01:50.767Z,95401.61
2018-12-25T10:04:20.248Z,95401.59
2018-12-25T10:06:49.753Z,95416.52
2018-12-25T10:09:19.275Z,95397.19
2018-12-25T10:11:48.737Z,95413.14
2018-12-25T10:14:18.270Z,95397.72
2018-12-25T10:16:49.789Z,95401.18
2018-12-25T10:19:18.943Z,95393.02
2018-12-25T10:21:48.399Z,95381.05
2018-12-25T10:24:17.931Z,95374.75
2018-12-25T10:26:47.399Z,95377.05
2018-12-25T10:29:16.874Z,95367.25
2018-12-25T10:31:46.500Z,95367.76
2018-12-25T10:34:16.354Z,95388.67
2018-12-25T10:36:45.908Z,95375.78
2018-12-25T10:39:15.443Z,95365.61
2018-12-25T10:41:44.979Z,95369.48
2018-12-25T10:44:14.484Z,95376.03
2018-12-25T10:46:43.955Z,95374.80
2018-12-25T10:49:13.473Z,95360.73
2018-12-25T10:51:42.991Z,95364.18
2018-12-25T10:54:12.580Z,95358.97
2018-12-25T10:56:42.074Z,95359.18
2018-12-25T10:59:12.061Z,95358.70
2018-12-25T11:01:41.699Z,95355.47
2018-12-25T11:04:11.189Z,95361.77
2018-12-25T11:06:40.715Z,95354.93
2018-12-25T11:09:10.278Z,95366.57
2018-12-25T11:11:39.833Z,95352.77
2018-12-25T11:14:09.370Z,95335.97
2018-12-25T11:16:38.885Z,95349.13
2018-12-25T11:19:08.385Z,95354.94
2018-12-25T11:21:37.895Z,95345.91
2018-12-25T11:24:07.383Z,95354.13
2018-12-25T11:26:36.839Z,95345.20
2018-12-25T11:29:06.393Z,95341.80
2018-12-25T11:31:35.871Z,95345.03
2018-12-25T11:34:05.399Z,95343.19
2018-12-25T11:36:34.929Z,95344.27
2018-12-25T11:39:05.794Z,95376.59
2018-12-25T11:41:35.271Z,95361.23
2018-12-25T11:44:04.851Z,95353.81
2018-12-25T11:46:34.332Z,95355.38
2018-12-25T11:49:03.948Z,95346.12
2018-12-25T11:51:33.452Z,95352.33
2018-12-25T11:54:03.016Z,95342.08
2018-12-25T11:56:32.564Z,95367.78
2018-12-25T11:59:02.139Z,95360.34
2018-12-25T12:01:31.739Z,95348.07
2018-12-25T12:04:01.286Z,95353.59
2018-12-25T12:06:30.830Z,95360.34
2018-12-25T12:09:00.356Z,95356.01
2018-12-25T12:11:29.961Z,95369.77
2018-12-25T12:13:59.541Z,95372.11
2018-12-25T12:16:29.063Z,95373.64
2018-12-25T12:18:58.925Z,95359.51
2018-12-25T12:21:28.386Z,95363.32
2018-12-25T12:23:58.065Z,95382.48
2018-12-25T12:26:27.633Z,95382.66
2018-12-25T12:28:57.194Z,95383.52
2018-12-25T12:31:26.730Z,95387.50
2018-12-25T12:33:56.221Z,95391.68
2018-12-25T12:36:25.825Z,95391.45
2018-12-25T12:38:55.415Z,95388.44
2018-12-25T12:41:24.901Z,95390.66
2018-12-25T12:43:54.458Z,95390.78
2018-12-25T12:46:24.079Z,95390.00
2018-12-25T12:48:53.627Z,95394.09
2018-12-25T12:51:27.221Z,95385.30
2018-12-25T12:53:56.830Z,95384.56
2018-12-25T12:56:26.394Z,95383.63
2018-12-25T12:58:55.965Z,95397.55
2018-12-25T13:01:25.580Z,95393.44
2018-12-25T13:03:56.395Z,95398.67
2018-12-25T13:06:25.948Z,95393.48
2018-12-25T13:08:55.551Z,95384.18
2018-12-25T13:11:25.153Z,95399.19
2018-12-25T13:13:54.706Z,95401.53
2018-12-25T13:16:24.181Z,95405.86
2018-12-25T13:18:54.143Z,95401.56
2018-12-25T13:21:23.626Z,95404.96
2018-12-25T13:23:53.309Z,95417.54
2018-12-25T13:26:22.915Z,95403.39
2018-12-25T13:28:52.579Z,95410.53
2018-12-25T13:31:22.197Z,95409.25
2018-12-25T13:33:51.785Z,95412.18
2018-12-25T13:36:21.279Z,95411.33
2018-12-25T13:38:50.862Z,95401.02
2018-12-25T13:41:20.661Z,95411.68
2018-12-25T13:43:50.127Z,95410.39
2018-12-25T13:46:19.647Z,95411.06
2018-12-25T13:48:49.159Z,95416.22
2018-12-25T13:51:18.668Z,95415.75
2018-12-25T13:53:48.225Z,95414.17
2018-12-25T13:56:17.775Z,95435.27
2018-12-25T13:58:47.335Z,95426.88
2018-12-25T14:01:16.801Z,95429.70
2018-12-25T14:03:46.365Z,95446.58
2018-12-25T14:06:16.946Z,95447.39
2018-12-25T14:08:46.512Z,95447.98
2018-12-25T14:11:16.186Z,95450.67
2018-12-25T14:13:45.928Z,95458.75
2018-12-25T14:16:15.520Z,95455.38
2018-12-25T14:18:45.214Z,95457.58
2018-12-25T14:21:14.763Z,95453.38
2018-12-25T14:23:45.728Z,95453.25
2018-12-25T14:26:15.200Z,95470.00
2018-12-25T14:28:47.811Z,95469.53
2018-12-25T14:31:17.431Z,95471.28
2018-12-25T14:33:46.993Z,95473.27
2018-12-25T14:36:16.632Z,95472.23
2018-12-25T14:38:46.197Z,95481.02
2018-12-25T14:41:15.809Z,95471.19
2018-12-25T14:43:52.151Z,95472.93
2018-12-25T14:46:21.907Z,95474.70
2018-12-25T14:48:51.453Z,95471.41
2018-12-25T14:51:21.546Z,95475.39
2018-12-25T14:53:51.038Z,95501.73
2018-12-25T14:56:20.772Z,95490.98
2018-12-25T14:58:50.424Z,95475.86
2018-12-25T15:01:19.999Z,95480.68
2018-12-25T15:03:49.503Z,95486.86
2018-12-25T15:06:19.036Z,95481.84
2018-12-25T15:08:48.631Z,95488.53
2018-12-25T15:11:18.182Z,95489.33
2018-12-25T15:13:47.672Z,95487.93
2018-12-25T15:16:17.147Z,95485.95
2018-12-25T15:18:46.684Z,95495.08
2018-12-25T15:21:16.326Z,95493.89
2018-12-25T15:23:45.866Z,95495.53
2018-12-25T15:26:15.423Z,95495.06
2018-12-25T15:28:46.018Z,95494.49
2018-12-25T15:31:15.622Z,95506.65
2018-12-25T15:33:47.997Z,95518.03
2018-12-25T15:36:21.733Z,95505.83
2018-12-25T15:38:51.290Z,95513.81
2018-12-25T15:41:21.468Z,95497.64
2018-12-25T15:43:50.998Z,95505.84
2018-12-25T15:46:20.510Z,95502.91
2018-12-25T15:48:50.516Z,95513.79
2018-12-25T15:51:22.653Z,95518.67
2018-12-25T15:53:52.223Z,95509.52
2018-12-25T15:56:24.660Z,95510.80
2018-12-25T15:58:56.448Z,95503.91
2018-12-25T16:01:25.967Z,95508.70
2018-12-25T16:03:56.451Z,95506.70
2018-12-25T16:06:27.873Z,95510.13
2018-12-25T16:08:57.347Z,95513.05
2018-12-25T16:11:26.878Z,95522.75
2018-12-25T16:13:56.467Z,95527.54
2018-12-25T16:16:26.016Z,95509.88
2018-12-25T16:18:57.870Z,95509.41
2018-12-25T16:21:27.431Z,95527.89
2018-12-25T16:23:57.110Z,95519.35
2018-12-25T16:26:26.710Z,95522.17
2018-12-25T16:28:56.216Z,95523.13
2018-12-25T16:31:26.027Z,95531.54
2018-12-25T16:33:55.521Z,95535.30
2018-12-25T16:36:25.095Z,95540.80
2018-12-25T16:38:55.295Z,95545.16
2018-12-25T16:41:27.473Z,95540.33
2018-12-25T16:43:56.961Z,95539.63
2018-12-25T16:46:26.524Z,95545.62
2018-12-25T16:48:56.058Z,95551.48
2018-12-25T16:51:25.615Z,95546.45
2018-12-25T16:53:55.199Z,95555.67
2018-12-25T16:56:24.787Z,95558.11
2018-12-25T16:58:54.338Z,95556.36
2018-12-25T17:01:23.831Z,95551.42
2018-12-25T17:03:53.458Z,95553.89
2018-12-25T17:06:23.061Z,95555.89
2018-12-25T17:08:52.814Z,95558.36
2018-12-25T17:11:22.288Z,95561.50
2018-12-25T17:13:51.871Z,95551.20
2018-12-25T17:16:21.382Z,95559.18
2018-12-25T17:18:50.955Z,95559.32
2018-12-25T17:21:20.481Z,95554.03
2018-12-25T17:23:50.024Z,95553.20
2018-12-25T17:26:19.545Z,95567.05
2018-12-25T17:28:49.241Z,95567.54
2018-12-25T17:31:18.751Z,95572.33
2018-12-25T17:33:48.282Z,95569.12
2018-12-25T17:36:17.815Z,95576.84
2018-12-25T17:38:47.420Z,95566.19
2018-12-25T17:41:19.290Z,95565.37
2018-12-25T17:43:48.899Z,95570.30
2018-12-25T17:46:18.380Z,95567.44
2018-12-25T17:48:47.907Z,95571.19
2018-12-25T17:51:17.460Z,95573.30
2018-12-25T17:53:46.986Z,95570.62
2018-12-25T17:56:16.595Z,95569.91
2018-12-25T17:58:46.180Z,95570.89
2018-12-25T18:01:15.697Z,95574.79
2018-12-25T18:03:45.210Z,95574.69
2018-12-25T18:06:14.718Z,95574.55
2018-12-25T18:08:44.250Z,95573.50
2018-12-25T18:11:13.880Z,95579.98
2018-12-25T18:13:43.654Z,95578.59
2018-12-25T18:16:13.231Z,95578.66
2018-12-25T18:18:42.856Z,95579.69
2018-12-25T18:21:12.371Z,95579.58
2018-12-25T18:23:41.965Z,95582.00
2018-12-25T18:26:11.700Z,95587.05
2018-12-25T18:28:41.431Z,95579.67
2018-12-25T18:31:11.409Z,95577.00
2018-12-25T18:33:41.207Z,95582.41
2018-12-25T18:36:11.164Z,95585.55
2018-12-25T18:38:40.746Z,95587.07
2018-12-25T18:41:10.492Z,95589.87
2018-12-25T18:43:40.236Z,95581.73
2018-12-25T18:46:11.281Z,95587.09
2018-12-25T18:48:40.955Z,95593.41
2018-12-25T18:51:10.552Z,95577.62
2018-12-25T18:53:42.871Z,95593.31
2018-12-25T18:56:12.457Z,95596.46
2018-12-25T18:58:42.491Z,95597.73
2018-12-25T19:01:11.974Z,95593.68
2018-12-25T19:03:41.540Z,95593.38
2018-12-25T19:06:11.100Z,95598.88
2018-12-25T19:08:40.720Z,95604.40
2018-12-25T19:11:10.231Z,95614.17
2018-12-25T19:13:39.819Z,95621.62
2018-12-25T19:16:09.409Z,95613.44
2018-12-25T19:18:39.039Z,95604.63
2018-12-25T19:21:08.558Z,95596.45
2018-12-25T19:23:42.255Z,95593.94
2018-12-25T19:26:11.869Z,95604.45
2018-12-25T19:28:41.374Z,95604.19
2018-12-25T19:31:10.909Z,95601.84
2018-12-25T19:33:40.505Z,95596.34
2018-12-25T19:36:10.852Z,95595.36
2018-12-25T19:38:40.411Z,95611.70
2018-12-25T19:41:09.908Z,95610.41
2018-12-25T19:43:39.456Z,95608.99
2018-12-25T19:46:09.095Z,95615.42
2018-12-25T19:48:38.698Z,95616.88
2018-12-25T19:51:08.249Z,95609.42
2018-12-25T19:53:37.902Z,95622.37
2018-12-25T19:56:07.385Z,95616.95
2018-12-25T19:58:37.172Z,95624.94
2018-12-25T20:01:06.740Z,95642.14
2018-12-25T20:03:44.297Z,95633.84
2018-12-25T20:06:44.661Z,95630.91
2018-12-25T20:10:16.549Z,95630.08
2018-12-25T20:13:22.378Z,95624.02
2018-12-25T20:16:21.644Z,95633.15
2018-12-25T20:19:30.841Z,95636.70
2018-12-25T20:22:59.917Z,95636.08
2018-12-25T20:26:12.217Z,95639.63
2018-12-25T20:29:19.737Z,95649.56
2018-12-25T20:32:30.137Z,95655.63
2018-12-25T20:38:40.245Z,95655.81
2018-12-25T20:41:50.594Z,95650.51
2018-12-25T20:44:55.549Z,95652.05
2018-12-25T20:48:13.880Z,95652.08
2018-12-25T20:51:33.720Z,95657.58
2018-12-25T20:54:38.710Z,95653.13
2018-12-25T20:57:48.764Z,95664.09
2018-12-25T21:00:53.479Z,95647.91
2018-12-25T21:04:06.086Z,95658.87
2018-12-25T21:07:27.664Z,95660.16
2018-12-25T21:10:33.096Z,95664.11
2018-12-25T21:13:47.993Z,95666.56
2018-12-25T21:16:54.505Z,95657.66
2018-12-25T21:20:12.779Z,95662.52
2018-12-25T21:23:17.951Z,95658.00
2018-12-25T21:26:22.929Z,95663.19
2018-12-25T21:28:52.536Z,95665.55
2018-12-25T21:31:22.235Z,95665.25
2018-12-25T21:33:53.241Z,95667.30
2018-12-25T21:36:22.879Z,95670.13
2018-12-25T21:38:52.356Z,95671.61
2018-12-25T21:41:22.749Z,95663.54
2018-12-25T21:43:52.801Z,95670.89
2018-12-25T21:46:33.349Z,95674.28
2018-12-25T21:49:03.073Z,95668.55
2018-12-25T21:51:33.057Z,95667.36
2018-12-25T21:54:11.308Z,95664.88
2018-12-25T21:56:40.988Z,95680.34
2018-12-25T21:59:10.567Z,95675.66
2018-12-25T22:01:40.206Z,95675.45
2018-12-25T22:04:09.847Z,95676.74
2018-12-25T22:06:39.367Z,95681.66
2018-12-25T22:09:08.868Z,95679.44
2018-12-25T22:11:38.674Z,95679.04
2018-12-25T22:14:08.296Z,95675.77
2018-12-25T22:16:39.013Z,95682.13
2018-12-25T22:19:08.947Z,95688.81
2018-12-25T22:21:38.447Z,95686.34
2018-12-25T22:24:07.905Z,95680.17
2018-12-25T22:26:48.249Z,95682.74
2018-12-25T22:29:18.113Z,95684.03
2018-12-25T22:31:47.710Z,95685.42
2018-12-25T22:34:17.226Z,95690.56
2018-12-25T22:36:46.757Z,95688.53
2018-12-25T22:39:16.318Z,95684.67
2018-12-25T22:41:50.256Z,95683.28
2018-12-25T22:44:20.677Z,95678.62
2018-12-25T22:46:50.188Z,95678.52
2018-12-25T22:49:40.160Z,95677.03
2018-12-25T22:52:09.834Z,95676.84
2018-12-25T22:54:39.571Z,95670.86
2018-12-25T22:57:18.213Z,95675.80
2018-12-25T22:59:47.799Z,95686.30
2018-12-25T23:02:17.428Z,95681.45
2018-12-25T23:04:46.956Z,95684.30
2018-12-25T23:07:16.518Z,95684.86
2018-12-25T23:09:46.507Z,95680.37
2018-12-25T23:12:16.243Z,95675.81
2018-12-25T23:14:45.754Z,95681.53
2018-12-25T23:17:15.398Z,95687.23
2018-12-25T23:19:44.983Z,95689.07
2018-12-25T23:22:14.686Z,95674.02
2018-12-25T23:25:09.706Z,95680.53
2018-12-25T23:27:40.293Z,95683.08
2018-12-25T23:30:28.711Z,95681.84
2018-12-25T23:33:19.012Z,95686.16
2018-12-25T23:35:48.604Z,95690.81
2018-12-25T23:38:18.198Z,95692.73
2018-12-25T23:40:58.542Z,95697.68
2018-12-25T23:43:28.104Z,95702.23
2018-12-25T23:45:58.055Z,95704.11
2018-12-25T23:48:27.605Z,95703.28
2018-12-25T23:50:57.158Z,95711.83
2018-12-25T23:53:26.857Z,95702.13
2018-12-25T23:56:16.675Z,95705.69
2018-12-25T23:58:46.369Z,95708.00
